Time;durP1;ratioP1;P1;durP2;ratioP2;P2;SDS_P1;SDS_P2;PMS_P1;PMS_P2;Temp;Humidity;BMP_temperature;BMP_pressure;BME280_temperature;BME280_humidity;BME280_pressure;Samples;Min_cycle;Max_cycle;Signal;HPM_P1;HPM_P2
2022/06/15 00:01:12;;;;;;;4.50;3.70;;;14.90;99.90;;;;;;5034319;28;20192;-75
2022/06/15 00:03:38;;;;;;;3.72;3.50;;;14.90;99.90;;;;;;5027048;28;20185;-76
2022/06/15 00:06:10;;;;;;;3.63;3.35;;;14.90;99.90;;;;;;5025907;28;20184;-76
2022/06/15 00:08:37;;;;;;;4.18;3.78;;;14.80;99.90;;;;;;5028316;28;20181;-76
2022/06/15 00:11:14;;;;;;;4.47;4.05;;;14.80;99.90;;;;;;5030080;28;20200;-76
2022/06/15 00:13:39;;;;;;;4.45;4.13;;;14.70;99.90;;;;;;5032248;28;20202;-76
2022/06/15 00:16:06;;;;;;;5.22;4.03;;;14.70;99.90;;;;;;5027771;28;20588;-76
2022/06/15 00:18:36;;;;;;;3.80;3.50;;;14.70;99.90;;;;;;5028681;28;20185;-76
2022/06/15 00:21:02;;;;;;;4.82;3.72;;;14.70;99.90;;;;;;5027381;28;20231;-76
2022/06/15 00:23:30;;;;;;;4.97;4.03;;;14.60;99.90;;;;;;5028959;28;20213;-75
2022/06/15 00:25:57;;;;;;;4.05;3.75;;;14.60;99.90;;;;;;5033403;28;20207;-75
2022/06/15 00:28:24;;;;;;;4.40;4.00;;;14.60;99.90;;;;;;5039096;28;20172;-75
2022/06/15 00:30:50;;;;;;;3.97;3.67;;;14.60;99.90;;;;;;5030107;28;20705;-75
2022/06/15 00:33:19;;;;;;;4.32;3.90;;;14.60;99.90;;;;;;5038314;28;20210;-75
2022/06/15 00:36:07;;;;;;;4.38;3.97;;;14.60;99.90;;;;;;5030374;28;20230;-76
2022/06/15 00:38:35;;;;;;;4.60;3.95;;;14.50;99.90;;;;;;5026114;28;20192;-76
2022/06/15 00:41:04;;;;;;;4.32;3.92;;;14.50;99.90;;;;;;5027491;28;20193;-75
2022/06/15 00:43:32;;;;;;;4.20;3.90;;;14.50;99.90;;;;;;5026978;28;20239;-76
2022/06/15 00:45:59;;;;;;;4.68;4.18;;;14.50;99.90;;;;;;5033903;28;20176;-76
2022/06/15 00:48:25;;;;;;;4.68;4.28;;;14.50;99.90;;;;;;5029012;28;20181;-74
2022/06/15 00:50:51;;;;;;;4.95;4.50;;;14.50;99.90;;;;;;5036307;28;20248;-75
2022/06/15 00:53:17;;;;;;;4.82;4.43;;;14.40;99.90;;;;;;5026692;28;20191;-75
2022/06/15 00:55:43;;;;;;;6.15;4.72;;;14.30;99.90;;;;;;5028967;28;20171;-75
2022/06/15 00:58:10;;;;;;;6.45;3.72;;;14.30;99.90;;;;;;5028306;28;20193;-75
2022/06/15 01:00:36;;;;;;;4.30;3.95;;;14.20;99.90;;;;;;5028185;28;20267;-75
2022/06/15 01:03:02;;;;;;;4.13;3.72;;;14.20;99.90;;;;;;5036354;28;20201;-74
2022/06/15 01:05:47;;;;;;;5.00;4.00;;;14.20;99.90;;;;;;5029397;28;20178;-74
2022/06/15 01:08:13;;;;;;;3.70;3.50;;;14.20;99.90;;;;;;5023801;28;20177;-74
2022/06/15 01:10:57;;;;;;;4.72;4.05;;;14.20;99.90;;;;;;5032350;28;20216;-74
2022/06/15 01:13:31;;;;;;;4.53;4.10;;;14.20;99.90;;;;;;5026836;28;20176;-75
2022/06/15 01:16:06;;;;;;;4.82;4.35;;;14.10;99.90;;;;;;5022042;28;20262;-75
2022/06/15 01:18:42;;;;;;;4.32;3.97;;;14.10;99.90;;;;;;5028752;28;20537;-76
2022/06/15 01:21:32;;;;;;;4.85;3.90;;;14.00;99.90;;;;;;5030636;28;20177;-76
2022/06/15 01:24:34;;;;;;;6.70;4.57;;;14.00;99.90;;;;;;5026842;28;20617;-74
2022/06/15 01:27:24;;;;;;;4.53;4.03;;;13.90;99.90;;;;;;5029401;28;20211;-75
2022/06/15 01:30:08;;;;;;;5.47;4.03;;;13.90;99.90;;;;;;5031766;28;20434;-74
2022/06/15 01:32:58;;;;;;;4.68;4.18;;;13.80;99.90;;;;;;5021882;28;20401;-73
2022/06/15 01:35:43;;;;;;;4.75;4.32;;;13.80;99.90;;;;;;5026351;28;20637;-74
2022/06/15 01:38:22;;;;;;;4.90;4.50;;;13.80;99.90;;;;;;5029519;28;20563;-74
2022/06/15 01:40:54;;;;;;;5.22;3.75;;;13.70;99.90;;;;;;5025369;28;20207;-76
2022/06/15 01:43:25;;;;;;;5.07;4.53;;;13.70;99.90;;;;;;5034720;28;20168;-74
2022/06/15 01:45:51;;;;;;;5.03;4.43;;;13.70;99.90;;;;;;5029169;28;20191;-74
2022/06/15 01:48:18;;;;;;;5.00;4.50;;;13.60;99.90;;;;;;5037767;28;20181;-74
2022/06/15 01:50:59;;;;;;;5.00;4.38;;;13.60;99.90;;;;;;5031450;28;20203;-74
2022/06/15 01:54:03;;;;;;;5.35;4.85;;;13.60;99.90;;;;;;5027954;28;20172;-74
2022/06/15 01:56:37;;;;;;;4.40;4.10;;;13.60;99.90;;;;;;5029081;28;20255;-74
2022/06/15 01:59:10;;;;;;;4.40;4.00;;;13.60;99.90;;;;;;5027819;28;20192;-76
2022/06/15 02:01:47;;;;;;;4.97;4.18;;;13.50;99.90;;;;;;5022252;28;20208;-74
2022/06/15 02:04:17;;;;;;;4.95;4.45;;;13.50;99.90;;;;;;5025181;28;20177;-74
2022/06/15 02:06:51;;;;;;;4.55;4.13;;;13.50;99.90;;;;;;5031804;28;20179;-74
2022/06/15 02:09:22;;;;;;;4.80;4.35;;;13.40;99.90;;;;;;5032608;28;20191;-74
2022/06/15 02:11:48;;;;;;;5.50;4.25;;;13.40;99.90;;;;;;5026727;28;20258;-73
2022/06/15 02:14:16;;;;;;;4.45;4.05;;;13.30;99.90;;;;;;5021268;28;20173;-74
2022/06/15 02:16:52;;;;;;;4.95;4.00;;;13.30;99.90;;;;;;5027339;28;20667;-74
2022/06/15 02:19:24;;;;;;;5.07;4.38;;;13.30;99.90;;;;;;5027112;28;20181;-74
2022/06/15 02:21:53;;;;;;;5.90;4.03;;;13.30;99.90;;;;;;5031629;28;20291;-74
2022/06/15 02:24:21;;;;;;;4.60;4.20;;;13.30;99.90;;;;;;5026943;28;20183;-74
2022/06/15 02:26:49;;;;;;;4.80;4.40;;;13.30;99.90;;;;;;5029227;28;20205;-75
2022/06/15 02:29:19;;;;;;;6.30;4.68;;;13.40;99.90;;;;;;5028046;28;20177;-76
2022/06/15 02:31:45;;;;;;;5.65;3.90;;;13.30;99.90;;;;;;5026943;28;20702;-75
2022/06/15 02:34:11;;;;;;;4.30;4.00;;;13.30;99.90;;;;;;5026578;28;20180;-75
2022/06/15 02:36:37;;;;;;;5.38;4.85;;;13.30;99.90;;;;;;5022920;28;20192;-76
2022/06/15 02:39:05;;;;;;;6.25;4.28;;;13.20;99.90;;;;;;5022451;28;20177;-75
2022/06/15 02:41:31;;;;;;;5.50;5.03;;;13.20;99.90;;;;;;5019834;28;20193;-75
2022/06/15 02:44:00;;;;;;;4.22;3.92;;;13.20;99.90;;;;;;5018664;28;20294;-74
2022/06/15 02:46:29;;;;;;;5.25;4.82;;;13.00;99.90;;;;;;5019527;28;20181;-74
2022/06/15 02:48:56;;;;;;;5.55;4.47;;;13.00;99.90;;;;;;5018729;28;20184;-74
2022/06/15 02:51:56;;;;;;;5.22;4.72;;;12.90;99.90;;;;;;5025378;28;20207;-75
2022/06/15 02:54:49;;;;;;;5.28;4.75;;;12.90;99.90;;;;;;5022871;28;20185;-79
2022/06/15 02:57:17;;;;;;;5.75;4.35;;;12.90;99.90;;;;;;5035828;28;20275;-78
2022/06/15 02:59:45;;;;;;;5.07;4.57;;;12.90;99.90;;;;;;5040420;28;20176;-78
2022/06/15 03:02:14;;;;;;;5.20;4.70;;;12.80;99.90;;;;;;5026594;28;20218;-79
2022/06/15 03:04:44;;;;;;;7.63;4.35;;;12.80;99.90;;;;;;5028975;28;20189;-79
2022/06/15 03:07:11;;;;;;;5.10;4.70;;;12.70;99.90;;;;;;5029184;28;20989;-79
2022/06/15 03:09:38;;;;;;;5.78;5.25;;;12.70;99.90;;;;;;5024934;28;20181;-79
2022/06/15 03:12:04;;;;;;;5.80;4.75;;;12.70;99.90;;;;;;5031991;28;20219;-80
2022/06/15 03:14:30;;;;;;;5.10;4.70;;;12.60;99.90;;;;;;5037240;28;20268;-80
2022/06/15 03:16:57;;;;;;;4.55;4.20;;;12.60;99.90;;;;;;5031894;28;20181;-79
2022/06/15 03:19:23;;;;;;;4.57;4.18;;;12.60;99.90;;;;;;5026532;28;20177;-79
2022/06/15 03:21:49;;;;;;;5.07;4.65;;;12.60;99.90;;;;;;5035589;28;20239;-80
2022/06/15 03:24:15;;;;;;;4.63;4.10;;;12.60;99.90;;;;;;5029897;28;20267;-79
2022/06/15 03:26:40;;;;;;;5.03;4.55;;;12.60;99.90;;;;;;5026528;28;20209;-79
2022/06/15 03:29:07;;;;;;;5.32;4.82;;;12.60;99.90;;;;;;5030747;28;20181;-80
2022/06/15 03:31:33;;;;;;;4.63;4.22;;;12.60;99.90;;;;;;5028265;28;20232;-79
2022/06/15 03:33:58;;;;;;;4.35;3.88;;;12.60;99.90;;;;;;5026824;28;20648;-79
2022/06/15 03:36:24;;;;;;;6.15;4.88;;;12.60;99.90;;;;;;5024920;28;20210;-79
2022/06/15 03:38:50;;;;;;;5.45;4.95;;;12.60;99.90;;;;;;5035961;28;20177;-78
2022/06/15 03:41:18;;;;;;;4.70;4.38;;;12.70;99.90;;;;;;5036774;28;20667;-78
2022/06/15 03:43:44;;;;;;;4.88;4.47;;;12.70;99.90;;;;;;5038079;28;20666;-78
2022/06/15 03:46:11;;;;;;;4.93;4.38;;;12.80;99.90;;;;;;5030460;28;20189;-77
2022/06/15 03:48:37;;;;;;;5.13;4.63;;;12.80;99.90;;;;;;5027211;28;20185;-77
2022/06/15 03:51:03;;;;;;;8.27;4.68;;;12.90;99.90;;;;;;5028811;28;20196;-76
2022/06/15 03:53:29;;;;;;;5.22;4.72;;;12.90;99.90;;;;;;5043778;28;20191;-76
2022/06/15 03:55:55;;;;;;;4.85;4.47;;;13.00;99.90;;;;;;5026172;28;20213;-77
2022/06/15 03:58:20;;;;;;;4.63;4.30;;;13.10;99.90;;;;;;5038509;28;20216;-77
2022/06/15 04:00:47;;;;;;;4.60;4.20;;;13.10;99.90;;;;;;5036956;28;20237;-78
2022/06/15 04:03:13;;;;;;;8.50;4.68;;;13.20;99.90;;;;;;5039599;28;20670;-77
2022/06/15 04:05:52;;;;;;;4.90;4.45;;;13.30;99.90;;;;;;5043469;28;20215;-78
2022/06/15 04:08:37;;;;;;;6.18;4.85;;;13.30;99.90;;;;;;5032806;28;20176;-78
2022/06/15 04:11:08;;;;;;;5.75;4.82;;;13.40;99.90;;;;;;5028928;28;20213;-80
2022/06/15 04:13:35;;;;;;;5.25;4.72;;;13.50;99.90;;;;;;5032696;28;20227;-78
2022/06/15 04:16:06;;;;;;;4.97;4.35;;;13.60;99.90;;;;;;5025445;28;20264;-78
2022/06/15 04:18:33;;;;;;;7.43;4.70;;;13.70;99.90;;;;;;5031005;28;20215;-78
2022/06/15 04:20:59;;;;;;;5.45;4.93;;;13.70;99.90;;;;;;5024289;28;20193;-78
2022/06/15 04:23:27;;;;;;;6.88;4.63;;;13.80;99.90;;;;;;5030589;28;20223;-79
2022/06/15 04:25:58;;;;;;;5.68;5.05;;;13.90;99.90;;;;;;5029333;28;20196;-78
2022/06/15 04:28:25;;;;;;;8.07;5.07;;;13.90;99.90;;;;;;5023754;28;20176;-76
2022/06/15 04:30:51;;;;;;;8.82;5.80;;;14.00;99.90;;;;;;5022768;28;20699;-76
2022/06/15 04:33:17;;;;;;;6.43;5.82;;;14.10;99.90;;;;;;5034529;28;20183;-76
2022/06/15 04:35:43;;;;;;;11.70;5.45;;;14.10;99.90;;;;;;5031607;28;20173;-77
2022/06/15 04:38:10;;;;;;;6.03;5.30;;;14.20;99.90;;;;;;5036590;28;20307;-76
2022/06/15 04:40:37;;;;;;;8.25;4.72;;;14.20;99.90;;;;;;5028699;28;20195;-76
2022/06/15 04:43:04;;;;;;;6.45;4.80;;;14.30;99.90;;;;;;5026482;28;20201;-76
2022/06/15 04:45:30;;;;;;;5.75;4.10;;;14.30;99.90;;;;;;5030218;28;20177;-75
2022/06/15 04:47:56;;;;;;;6.95;4.53;;;14.40;99.90;;;;;;5032348;28;20256;-76
2022/06/15 04:50:25;;;;;;;7.82;4.82;;;14.40;99.90;;;;;;5030247;28;20639;-78
2022/06/15 04:53:05;;;;;;;4.45;4.13;;;14.40;99.90;;;;;;5025697;28;20274;-78
2022/06/15 04:55:40;;;;;;;6.88;5.00;;;14.50;99.90;;;;;;5041348;28;20180;-79
2022/06/15 04:58:07;;;;;;;6.13;4.78;;;14.50;99.90;;;;;;5042386;28;20177;-78
2022/06/15 05:00:40;;;;;;;10.48;5.53;;;14.50;99.90;;;;;;5034987;28;20550;-79
2022/06/15 05:03:06;;;;;;;4.75;4.30;;;14.50;99.90;;;;;;5021194;28;20203;-75
2022/06/15 05:05:33;;;;;;;7.57;4.72;;;14.60;99.90;;;;;;5028296;28;20200;-78
2022/06/15 05:07:58;;;;;;;8.57;5.65;;;14.70;99.90;;;;;;5033723;28;20191;-76
2022/06/15 05:10:25;;;;;;;7.57;4.60;;;14.80;99.90;;;;;;5027746;28;20250;-75
2022/06/15 05:12:53;;;;;;;6.82;4.60;;;14.80;99.90;;;;;;5028309;28;20672;-76
2022/06/15 05:15:20;;;;;;;8.30;5.70;;;14.80;99.90;;;;;;5027956;28;20195;-75
2022/06/15 05:17:46;;;;;;;6.07;5.03;;;14.90;99.90;;;;;;5024164;28;20231;-75
2022/06/15 05:20:14;;;;;;;6.43;4.50;;;15.00;99.90;;;;;;5022759;28;20255;-75
2022/06/15 05:22:40;;;;;;;8.07;4.88;;;15.00;99.90;;;;;;5018670;28;20228;-75
2022/06/15 05:25:08;;;;;;;9.50;5.43;;;15.20;99.90;;;;;;5022345;28;20655;-75
2022/06/15 05:27:34;;;;;;;5.10;4.70;;;15.30;99.90;;;;;;5019947;28;20181;-74
2022/06/15 05:30:01;;;;;;;4.85;4.43;;;15.40;99.90;;;;;;5027337;28;20576;-74
2022/06/15 05:32:27;;;;;;;5.82;4.57;;;15.60;99.90;;;;;;5025609;28;20212;-75
2022/06/15 05:34:55;;;;;;;5.10;4.65;;;15.80;99.90;;;;;;5028941;28;20310;-75
2022/06/15 05:37:22;;;;;;;4.80;4.40;;;15.90;99.90;;;;;;5033098;28;20611;-75
2022/06/15 05:39:48;;;;;;;5.65;5.00;;;16.10;99.90;;;;;;5027202;28;20636;-74
2022/06/15 05:42:14;;;;;;;4.78;4.20;;;16.20;99.90;;;;;;5026803;28;20230;-76
2022/06/15 05:44:44;;;;;;;4.50;4.10;;;16.40;99.90;;;;;;5028467;28;20246;-76
2022/06/15 05:47:11;;;;;;;5.88;4.25;;;16.50;99.90;;;;;;5024608;28;20181;-76
2022/06/15 05:49:36;;;;;;;4.47;4.15;;;16.80;99.90;;;;;;5030112;28;20651;-76
2022/06/15 05:52:02;;;;;;;4.30;3.90;;;17.00;99.90;;;;;;5025109;28;20213;-76
2022/06/15 05:54:28;;;;;;;5.93;4.20;;;17.20;99.90;;;;;;5044493;28;20182;-77
2022/06/15 05:56:54;;;;;;;6.25;4.50;;;17.40;99.90;;;;;;5030018;28;20189;-76
2022/06/15 05:59:19;;;;;;;7.45;4.65;;;17.60;99.90;;;;;;5024351;28;20180;-77
2022/06/15 06:01:45;;;;;;;4.70;4.20;;;17.70;99.90;;;;;;5022424;28;21308;-78
2022/06/15 06:04:15;;;;;;;4.45;4.00;;;17.70;99.90;;;;;;5021400;28;20192;-78
2022/06/15 06:06:40;;;;;;;5.32;4.30;;;17.80;99.90;;;;;;5027376;28;20201;-74
2022/06/15 06:09:06;;;;;;;4.70;4.20;;;17.80;99.90;;;;;;5035603;28;20217;-75
2022/06/15 06:11:32;;;;;;;6.47;4.32;;;17.80;99.90;;;;;;5032520;28;20247;-75
2022/06/15 06:13:58;;;;;;;7.32;4.07;;;17.80;99.90;;;;;;5027731;28;20288;-75
2022/06/15 06:16:23;;;;;;;6.10;4.13;;;17.80;99.90;;;;;;5029236;28;20254;-75
2022/06/15 06:18:51;;;;;;;5.25;3.90;;;17.80;99.90;;;;;;5028718;28;20180;-75
2022/06/15 06:21:17;;;;;;;6.40;4.32;;;17.90;99.90;;;;;;5023032;28;20204;-75
2022/06/15 06:23:43;;;;;;;5.57;3.83;;;17.90;99.90;;;;;;5030524;28;20636;-75
2022/06/15 06:26:24;;;;;;;5.47;3.92;;;18.00;99.90;;;;;;5028877;28;20219;-75
2022/06/15 06:28:51;;;;;;;6.63;4.53;;;18.10;99.90;;;;;;5028573;28;20234;-75
2022/06/15 06:31:19;;;;;;;5.25;4.22;;;18.20;99.90;;;;;;5033842;28;20212;-75
2022/06/15 06:33:48;;;;;;;4.75;3.88;;;18.20;99.90;;;;;;5023804;28;20251;-74
2022/06/15 06:36:29;;;;;;;4.25;3.85;;;18.30;99.90;;;;;;5029054;28;20236;-75
2022/06/15 06:38:55;;;;;;;3.88;3.58;;;18.30;99.90;;;;;;5027113;28;20588;-75
2022/06/15 06:41:23;;;;;;;4.68;4.20;;;18.40;99.90;;;;;;5027520;28;20254;-75
2022/06/15 06:43:48;;;;;;;4.47;3.60;;;18.50;99.90;;;;;;5029056;28;20279;-74
2022/06/15 06:46:14;;;;;;;4.60;3.47;;;18.50;99.90;;;;;;5025884;28;20220;-74
2022/06/15 06:48:40;;;;;;;6.00;3.55;;;18.60;99.90;;;;;;5030224;28;20184;-74
2022/06/15 06:51:06;;;;;;;5.25;4.07;;;18.70;99.90;;;;;;5027897;28;20291;-75
2022/06/15 06:53:31;;;;;;;4.10;3.53;;;18.70;99.90;;;;;;5023244;28;20183;-74
2022/06/15 06:56:00;;;;;;;5.30;3.65;;;18.80;99.90;;;;;;5024335;28;20181;-74
2022/06/15 06:58:26;;;;;;;8.55;3.47;;;18.90;99.90;;;;;;5031715;28;20172;-74
2022/06/15 07:00:51;;;;;;;5.93;3.50;;;19.00;99.90;;;;;;5024065;28;20260;-75
2022/06/15 07:03:17;;;;;;;3.50;3.20;;;19.10;99.90;;;;;;5026994;28;20216;-75
2022/06/15 07:05:44;;;;;;;3.92;3.55;;;19.20;99.90;;;;;;5026084;28;20566;-74
2022/06/15 07:08:12;;;;;;;3.70;3.40;;;19.30;99.90;;;;;;5028731;28;20232;-74
2022/06/15 07:10:38;;;;;;;3.70;3.40;;;19.40;99.90;;;;;;5027300;28;20847;-75
2022/06/15 07:13:04;;;;;;;3.90;3.42;;;19.50;99.90;;;;;;5028057;28;20500;-75
2022/06/15 07:15:29;;;;;;;4.20;3.80;;;19.60;99.90;;;;;;5022306;28;20214;-75
2022/06/15 07:17:59;;;;;;;3.72;3.25;;;19.60;99.90;;;;;;5024307;28;20213;-75
2022/06/15 07:20:27;;;;;;;4.35;3.08;;;19.70;99.90;;;;;;5027221;28;20183;-75
2022/06/15 07:22:52;;;;;;;4.75;3.35;;;19.80;99.90;;;;;;5022798;28;20209;-74
2022/06/15 07:25:18;;;;;;;6.20;3.47;;;19.90;99.90;;;;;;5026924;28;20188;-75
2022/06/15 07:27:44;;;;;;;3.78;3.47;;;19.90;99.90;;;;;;5029542;28;20742;-75
2022/06/15 07:30:17;;;;;;;5.85;4.05;;;20.00;99.90;;;;;;5026668;28;20204;-75
2022/06/15 07:32:44;;;;;;;3.42;3.10;;;20.20;99.90;;;;;;5021752;28;20226;-75
2022/06/15 07:35:19;;;;;;;3.25;3.00;;;20.20;99.90;;;;;;5031437;28;20199;-75
2022/06/15 07:37:45;;;;;;;4.38;3.30;;;20.30;99.90;;;;;;5029129;28;20184;-75
2022/06/15 07:40:12;;;;;;;4.38;3.42;;;20.40;99.90;;;;;;5027178;28;20173;-75
2022/06/15 07:42:38;;;;;;;3.72;3.42;;;20.40;99.90;;;;;;5026990;28;20287;-75
2022/06/15 07:45:04;;;;;;;6.38;3.28;;;20.50;99.90;;;;;;5027875;28;20264;-75
2022/06/15 07:50:15;;;;;;;3.78;3.35;;;20.70;99.90;;;;;;5029177;28;20659;-75
2022/06/15 07:52:43;;;;;;;5.03;3.58;;;20.80;99.90;;;;;;5021665;28;20590;-75
2022/06/15 07:55:12;;;;;;;5.80;3.17;;;20.90;99.90;;;;;;5024985;28;20181;-75
2022/06/15 07:57:38;;;;;;;3.30;3.00;;;20.90;99.90;;;;;;5030900;28;20264;-74
2022/06/15 08:00:05;;;;;;;4.13;3.65;;;21.00;99.90;;;;;;5030900;28;20260;-74
2022/06/15 08:02:31;;;;;;;5.53;3.60;;;21.10;99.90;;;;;;5027063;28;20846;-75
2022/06/15 08:04:57;;;;;;;6.65;3.47;;;21.10;99.90;;;;;;5025565;28;20259;-75
2022/06/15 08:07:22;;;;;;;3.25;2.97;;;21.20;99.90;;;;;;5026363;28;20232;-75
2022/06/15 08:09:48;;;;;;;27.92;6.13;;;21.30;99.90;;;;;;5028262;28;20184;-75
2022/06/15 08:12:16;;;;;;;5.85;3.50;;;21.40;99.90;;;;;;5031764;28;20215;-73
2022/06/15 08:14:53;;;;;;;45.70;11.55;;;21.50;99.90;;;;;;5021926;28;20683;-75
2022/06/15 08:17:32;;;;;;;100.70;18.20;;;21.60;99.90;;;;;;5027585;28;20176;-75
2022/06/15 08:20:16;;;;;;;16.88;5.88;;;21.60;99.90;;;;;;5028866;28;20181;-75
2022/06/15 08:22:45;;;;;;;27.65;7.35;;;21.80;99.90;;;;;;5025961;28;20209;-75
2022/06/15 08:25:14;;;;;;;7.43;4.18;;;21.80;99.90;;;;;;5026627;28;20189;-74
2022/06/15 08:27:41;;;;;;;6.75;3.80;;;22.00;99.90;;;;;;5032483;28;20177;-74
2022/06/15 08:30:10;;;;;;;213.00;33.10;;;22.00;99.90;;;;;;5022819;28;20192;-75
2022/06/15 08:32:38;;;;;;;52.25;10.15;;;22.10;99.90;;;;;;5022975;28;20208;-75
2022/06/15 08:35:05;;;;;;;9.73;4.25;;;22.10;99.90;;;;;;5026680;28;20261;-75
2022/06/15 08:37:30;;;;;;;9.35;3.90;;;22.20;99.90;;;;;;5028305;28;20180;-75
2022/06/15 08:39:56;;;;;;;4.50;3.25;;;22.40;99.90;;;;;;5028483;28;20173;-75
2022/06/15 08:42:47;;;;;;;3.20;2.92;;;22.40;99.90;;;;;;5032741;28;20547;-75
2022/06/15 08:45:27;;;;;;;16.38;5.40;;;22.50;99.90;;;;;;5028322;28;20203;-75
2022/06/15 08:48:30;;;;;;;9.02;3.80;;;22.60;99.90;;;;;;5022486;28;20246;-75
2022/06/15 08:51:09;;;;;;;4.93;3.03;;;22.70;99.90;;;;;;5028430;28;20236;-76
2022/06/15 08:54:05;;;;;;;4.22;2.97;;;22.80;99.90;;;;;;5025321;28;20212;-75
2022/06/15 08:56:44;;;;;;;15.38;4.55;;;22.90;99.90;;;;;;5022010;28;20193;-75
2022/06/15 08:59:32;;;;;;;132.32;21.23;;;22.90;99.90;;;;;;5026408;28;20179;-75
2022/06/15 09:02:15;;;;;;;666.75;109.97;;;23.10;99.90;;;;;;5029253;28;20197;-75
2022/06/15 09:04:58;;;;;;;2.78;2.58;;;23.10;99.90;;;;;;5025476;28;20181;-75
2022/06/15 09:07:31;;;;;;;4.50;3.05;;;23.30;99.90;;;;;;5025357;28;20655;-75
2022/06/15 09:10:19;;;;;;;3.80;2.95;;;23.40;99.90;;;;;;5026720;28;20189;-75
2022/06/15 09:12:59;;;;;;;5.35;3.40;;;23.50;99.90;;;;;;5023797;28;20213;-75
2022/06/15 09:15:33;;;;;;;3.22;2.95;;;23.60;99.90;;;;;;5026181;28;20169;-75
2022/06/15 09:18:05;;;;;;;7.47;4.05;;;23.70;99.90;;;;;;5034535;28;20180;-75
2022/06/15 09:20:46;;;;;;;9.52;3.78;;;23.80;99.90;;;;;;5027675;28;20173;-75
2022/06/15 09:23:31;;;;;;;11.95;4.45;;;24.00;99.90;;;;;;5026519;28;20287;-73
2022/06/15 09:26:11;;;;;;;59.63;12.80;;;24.20;99.90;;;;;;5029174;28;20574;-72
2022/06/15 09:28:45;;;;;;;6.22;3.13;;;24.50;99.90;;;;;;5023421;28;20172;-73
2022/06/15 09:31:22;;;;;;;3.15;2.75;;;24.70;99.90;;;;;;5029853;28;20573;-73
2022/06/15 09:33:58;;;;;;;6.07;3.17;;;24.80;99.00;;;;;;5027887;28;20176;-73
2022/06/15 09:36:31;;;;;;;8.75;3.42;;;25.10;98.30;;;;;;5026880;28;20180;-74
2022/06/15 09:38:57;;;;;;;3.33;2.30;;;25.90;95.50;;;;;;5026015;28;20234;-73
2022/06/15 09:41:28;;;;;;;8.10;3.47;;;27.80;91.00;;;;;;5032432;28;20200;-73
2022/06/15 09:44:06;;;;;;;2.28;2.17;;;30.30;82.70;;;;;;5027038;28;20526;-73
2022/06/15 09:46:42;;;;;;;2.78;2.20;;;32.60;66.40;;;;;;5026233;28;20207;-73
2022/06/15 09:49:44;;;;;;;3.15;2.42;;;33.90;60.80;;;;;;5024018;28;20184;-71
2022/06/15 09:52:18;;;;;;;3.25;2.40;;;35.50;54.40;;;;;;5023627;28;20248;-72
2022/06/15 09:55:01;;;;;;;2.78;2.20;;;37.10;49.30;;;;;;5026318;28;20181;-72
2022/06/15 09:57:27;;;;;;;3.08;1.98;;;37.60;48.30;;;;;;5022488;28;20180;-72
2022/06/15 09:59:52;;;;;;;1.90;1.70;;;37.40;45.40;;;;;;5029910;28;20254;-72
2022/06/15 10:02:28;;;;;;;2.10;2.00;;;37.50;44.50;;;;;;5028882;28;20195;-72
2022/06/15 10:04:56;;;;;;;3.78;1.88;;;37.60;43.60;;;;;;5025426;28;20263;-72
2022/06/15 10:07:32;;;;;;;2.05;1.90;;;38.50;42.50;;;;;;5029068;28;20187;-71
2022/06/15 10:10:14;;;;;;;2.30;1.90;;;38.90;42.20;;;;;;5028203;28;20164;-72
2022/06/15 10:12:56;;;;;;;2.10;1.90;;;39.20;42.20;;;;;;5025547;28;20743;-72
2022/06/15 10:15:29;;;;;;;2.22;2.00;;;39.60;41.50;;;;;;5023652;28;20182;-71
2022/06/15 10:17:58;;;;;;;2.25;1.73;;;40.20;40.80;;;;;;5032186;28;20185;-72
2022/06/15 10:20:32;;;;;;;2.53;2.03;;;39.60;39.90;;;;;;5028024;28;20545;-72
2022/06/15 10:23:01;;;;;;;2.03;1.92;;;40.10;40.20;;;;;;5022591;28;20297;-72
2022/06/15 10:25:30;;;;;;;2.67;1.77;;;40.10;40.70;;;;;;5024390;28;20184;-72
2022/06/15 10:28:31;;;;;;;2.28;1.80;;;40.10;39.10;;;;;;5022063;28;20259;-72
2022/06/15 10:30:59;;;;;;;2.78;1.75;;;40.80;39.90;;;;;;5031229;28;20216;-72
2022/06/15 10:33:36;;;;;;;2.67;1.83;;;40.80;39.20;;;;;;5022431;28;20171;-73
2022/06/15 10:36:02;;;;;;;2.47;1.60;;;40.40;39.80;;;;;;5024773;28;20199;-72
2022/06/15 10:38:28;;;;;;;2.08;1.98;;;39.70;39.60;;;;;;5024135;28;20543;-72
2022/06/15 10:43:46;;;;;;;2.10;1.90;;;40.20;40.40;;;;;;5022058;28;20198;-73
2022/06/15 10:46:12;;;;;;;2.70;1.90;;;40.60;40.00;;;;;;5029142;28;20237;-72
2022/06/15 10:48:52;;;;;;;3.50;1.90;;;40.70;39.00;;;;;;5024330;28;20256;-72
2022/06/15 10:51:35;;;;;;;2.72;1.90;;;40.40;38.90;;;;;;5024884;28;20613;-72
2022/06/15 10:54:22;;;;;;;3.80;1.98;;;40.80;39.10;;;;;;5020415;28;20180;-71
2022/06/15 11:02:37;;;;;;;2.92;1.77;;;41.10;39.80;;;;;;5030701;28;20720;-72
2022/06/15 11:05:16;;;;;;;3.75;1.92;;;41.80;39.00;;;;;;5025122;28;20180;-72
2022/06/15 11:07:51;;;;;;;3.28;1.60;;;42.10;39.80;;;;;;5020947;28;20180;-72
2022/06/15 11:10:37;;;;;;;1.80;1.70;;;42.00;36.50;;;;;;5027795;28;20183;-73
2022/06/15 11:13:04;;;;;;;2.28;1.80;;;42.00;37.00;;;;;;5030509;28;20219;-73
2022/06/15 11:18:38;;;;;;;1.75;1.58;;;42.50;37.50;;;;;;5031324;28;20189;-72
2022/06/15 11:21:21;;;;;;;2.65;1.70;;;43.10;36.60;;;;;;5023273;28;20226;-73
2022/06/15 11:24:15;;;;;;;1.70;1.60;;;42.80;37.00;;;;;;5023843;28;20647;-72
2022/06/15 11:27:09;;;;;;;1.30;1.30;;;42.10;34.20;;;;;;5021786;28;20662;-73
2022/06/15 11:29:51;;;;;;;1.73;1.63;;;41.60;36.60;;;;;;5027862;28;20192;-73
2022/06/15 11:32:28;;;;;;;1.70;1.60;;;41.50;37.70;;;;;;5027134;28;20203;-73
2022/06/15 11:35:12;;;;;;;3.20;1.65;;;41.50;38.40;;;;;;5030464;28;20188;-72
2022/06/15 11:37:42;;;;;;;1.73;1.60;;;41.30;36.60;;;;;;5027374;28;20344;-72
2022/06/15 11:40:14;;;;;;;1.50;1.40;;;40.80;36.60;;;;;;5029515;28;20180;-72
2022/06/15 11:42:41;;;;;;;2.47;1.40;;;40.50;37.20;;;;;;5021137;28;20270;-72
2022/06/15 11:45:14;;;;;;;2.53;1.52;;;40.70;37.60;;;;;;5034490;28;20176;-72
2022/06/15 11:48:06;;;;;;;2.83;1.40;;;41.00;38.30;;;;;;5029186;28;20728;-73
2022/06/15 11:50:47;;;;;;;2.13;1.92;;;40.70;38.50;;;;;;5024201;28;20191;-73
2022/06/15 11:53:33;;;;;;;1.80;1.50;;;40.30;38.60;;;;;;5028836;28;20195;-73
2022/06/15 11:56:13;;;;;;;1.83;1.63;;;40.40;38.70;;;;;;5025331;28;20766;-73
2022/06/15 11:58:57;;;;;;;1.48;1.48;;;40.30;37.60;;;;;;5023214;28;20172;-73
2022/06/15 12:01:40;;;;;;;2.28;1.50;;;40.10;39.00;;;;;;5035585;28;20990;-73
2022/06/15 12:04:48;;;;;;;2.08;1.50;;;39.60;39.50;;;;;;5029578;28;20199;-74
2022/06/15 12:07:35;;;;;;;1.35;1.25;;;39.30;39.60;;;;;;5028052;28;20182;-73
2022/06/15 12:10:00;;;;;;;1.45;1.40;;;39.60;39.30;;;;;;5024625;28;20185;-73
2022/06/15 12:12:38;;;;;;;2.47;1.60;;;40.20;37.90;;;;;;5032912;28;20203;-73
2022/06/15 12:15:10;;;;;;;3.00;1.67;;;40.60;37.30;;;;;;5028870;28;20168;-73
2022/06/15 12:18:14;;;;;;;2.33;1.40;;;40.40;38.10;;;;;;5022353;28;20176;-73
2022/06/15 12:20:49;;;;;;;1.58;1.20;;;40.30;38.20;;;;;;5023683;28;20562;-73
2022/06/15 12:23:40;;;;;;;2.47;1.20;;;40.30;37.10;;;;;;5021557;28;20187;-73
2022/06/15 12:26:33;;;;;;;1.35;1.25;;;40.70;36.80;;;;;;5023800;28;20192;-73
2022/06/15 12:29:06;;;;;;;1.98;1.20;;;40.90;37.30;;;;;;5026993;28;20185;-74
2022/06/15 12:32:26;;;;;;;1.33;0.80;;;41.40;35.40;;;;;;5024638;28;20212;-73
2022/06/15 12:35:02;;;;;;;1.90;1.00;;;41.80;33.80;;;;;;5021315;28;20184;-74
2022/06/15 12:37:55;;;;;;;1.20;1.10;;;43.80;33.70;;;;;;5029979;28;20173;-73
2022/06/15 12:40:32;;;;;;;1.20;1.10;;;45.90;33.70;;;;;;5033404;28;20176;-73
2022/06/15 12:43:11;;;;;;;0.93;0.93;;;47.80;31.90;;;;;;5021267;28;20208;-73
2022/06/15 12:45:43;;;;;;;4.68;1.17;;;48.10;30.80;;;;;;5029305;28;20553;-73
2022/06/15 12:48:34;;;;;;;1.23;1.10;;;49.90;29.70;;;;;;5021769;28;20183;-74
2022/06/15 12:51:10;;;;;;;1.35;1.00;;;52.00;28.90;;;;;;5025303;28;20195;-73
2022/06/15 12:53:36;;;;;;;1.02;0.80;;;52.20;28.10;;;;;;5027665;28;20183;-73
2022/06/15 12:56:33;;;;;;;1.50;0.95;;;52.20;27.70;;;;;;5027483;28;20177;-74
2022/06/15 12:59:23;;;;;;;1.05;1.00;;;53.90;27.40;;;;;;5022574;28;20656;-74
2022/06/15 13:02:18;;;;;;;2.08;0.60;;;56.00;26.20;;;;;;5029493;28;20200;-72
2022/06/15 13:05:04;;;;;;;1.00;1.00;;;56.30;25.30;;;;;;5026339;28;20181;-73
2022/06/15 13:07:33;;;;;;;0.60;0.60;;;56.30;24.80;;;;;;5021483;28;20194;-74
2022/06/15 13:10:13;;;;;;;0.88;0.88;;;56.60;25.50;;;;;;5024656;28;20647;-73
2022/06/15 13:12:41;;;;;;;3.08;0.93;;;56.60;24.70;;;;;;5027132;28;20291;-73
2022/06/15 13:15:23;;;;;;;1.05;0.88;;;57.60;25.00;;;;;;5027885;28;20263;-74
2022/06/15 13:18:09;;;;;;;0.57;0.57;;;57.30;24.90;;;;;;5019640;28;20253;-74
2022/06/15 13:20:46;;;;;;;1.67;0.82;;;57.10;24.80;;;;;;5027093;28;20182;-73
2022/06/15 13:23:39;;;;;;;1.90;1.00;;;55.70;25.20;;;;;;5028020;28;20218;-73
2022/06/15 13:26:18;;;;;;;1.05;1.02;;;56.70;24.40;;;;;;5023078;28;20215;-73
2022/06/15 13:29:03;;;;;;;0.80;0.80;;;57.80;24.10;;;;;;5023355;28;20176;-74